sensor_id;sensor_type;location;lat;lon;timestamp;P1;durP1;ratioP1;P2;durP2;ratioP2
60722;SDS011;46574;52.818;6.516;2024-01-10T00:01:23;20.23;;;14.82;;
60722;SDS011;46574;52.818;6.516;2024-01-10T00:03:53;19.95;;;14.75;;
60722;SDS011;46574;52.818;6.516;2024-01-10T00:06:21;23.25;;;14.80;;
60722;SDS011;46574;52.818;6.516;2024-01-10T00:08:48;18.88;;;14.55;;
60722;SDS011;46574;52.818;6.516;2024-01-10T00:11:14;21.88;;;14.93;;
60722;SDS011;46574;52.818;6.516;2024-01-10T00:13:40;24.58;;;16.05;;
60722;SDS011;46574;52.818;6.516;2024-01-10T00:16:05;22.48;;;15.30;;
60722;SDS011;46574;52.818;6.516;2024-01-10T00:18:31;22.33;;;14.82;;
60722;SDS011;46574;52.818;6.516;2024-01-10T00:20:57;20.08;;;14.90;;
60722;SDS011;46574;52.818;6.516;2024-01-10T00:23:23;18.70;;;14.07;;
60722;SDS011;46574;52.818;6.516;2024-01-10T00:25:49;19.80;;;14.32;;
60722;SDS011;46574;52.818;6.516;2024-01-10T00:28:15;21.42;;;15.43;;
60722;SDS011;46574;52.818;6.516;2024-01-10T00:33:10;21.23;;;14.90;;
60722;SDS011;46574;52.818;6.516;2024-01-10T00:35:36;19.20;;;13.85;;
60722;SDS011;46574;52.818;6.516;2024-01-10T00:38:02;18.38;;;14.18;;
60722;SDS011;46574;52.818;6.516;2024-01-10T00:40:28;19.95;;;14.57;;
60722;SDS011;46574;52.818;6.516;2024-01-10T00:42:54;20.95;;;15.05;;
60722;SDS011;46574;52.818;6.516;2024-01-10T00:45:19;18.63;;;13.90;;
60722;SDS011;46574;52.818;6.516;2024-01-10T00:47:45;17.05;;;12.95;;
60722;SDS011;46574;52.818;6.516;2024-01-10T00:50:12;21.67;;;15.70;;
60722;SDS011;46574;52.818;6.516;2024-01-10T00:52:37;19.38;;;14.73;;
60722;SDS011;46574;52.818;6.516;2024-01-10T00:55:03;21.52;;;15.32;;
60722;SDS011;46574;52.818;6.516;2024-01-10T00:57:29;21.63;;;15.38;;
60722;SDS011;46574;52.818;6.516;2024-01-10T00:59:55;19.48;;;14.68;;
60722;SDS011;46574;52.818;6.516;2024-01-10T01:02:20;19.35;;;14.32;;
60722;SDS011;46574;52.818;6.516;2024-01-10T01:04:46;21.15;;;16.52;;
60722;SDS011;46574;52.818;6.516;2024-01-10T01:07:11;22.17;;;14.88;;
60722;SDS011;46574;52.818;6.516;2024-01-10T01:09:37;22.40;;;15.68;;
60722;SDS011;46574;52.818;6.516;2024-01-10T01:12:03;22.38;;;15.23;;
60722;SDS011;46574;52.818;6.516;2024-01-10T01:14:29;19.15;;;14.27;;
60722;SDS011;46574;52.818;6.516;2024-01-10T01:16:54;21.48;;;15.48;;
60722;SDS011;46574;52.818;6.516;2024-01-10T01:19:20;22.27;;;15.85;;
60722;SDS011;46574;52.818;6.516;2024-01-10T01:21:45;21.00;;;14.82;;
60722;SDS011;46574;52.818;6.516;2024-01-10T01:24:11;20.83;;;14.57;;
60722;SDS011;46574;52.818;6.516;2024-01-10T01:26:37;22.42;;;15.60;;
60722;SDS011;46574;52.818;6.516;2024-01-10T01:29:02;21.10;;;14.80;;
60722;SDS011;46574;52.818;6.516;2024-01-10T01:31:28;20.83;;;14.35;;
60722;SDS011;46574;52.818;6.516;2024-01-10T01:33:54;21.70;;;15.77;;
60722;SDS011;46574;52.818;6.516;2024-01-10T01:36:20;21.10;;;14.35;;
60722;SDS011;46574;52.818;6.516;2024-01-10T01:38:45;17.63;;;14.02;;
60722;SDS011;46574;52.818;6.516;2024-01-10T01:41:11;21.27;;;14.52;;
60722;SDS011;46574;52.818;6.516;2024-01-10T01:43:37;20.88;;;14.73;;
60722;SDS011;46574;52.818;6.516;2024-01-10T01:46:03;19.63;;;15.05;;
60722;SDS011;46574;52.818;6.516;2024-01-10T01:48:29;20.50;;;14.77;;
60722;SDS011;46574;52.818;6.516;2024-01-10T01:50:56;22.70;;;14.65;;
60722;SDS011;46574;52.818;6.516;2024-01-10T01:53:25;21.48;;;14.90;;
60722;SDS011;46574;52.818;6.516;2024-01-10T01:55:53;21.42;;;15.27;;
60722;SDS011;46574;52.818;6.516;2024-01-10T01:58:19;18.67;;;14.55;;
60722;SDS011;46574;52.818;6.516;2024-01-10T02:00:47;20.10;;;14.30;;
60722;SDS011;46574;52.818;6.516;2024-01-10T02:03:13;21.38;;;15.27;;
60722;SDS011;46574;52.818;6.516;2024-01-10T02:05:39;21.58;;;15.10;;
60722;SDS011;46574;52.818;6.516;2024-01-10T02:08:05;21.48;;;15.35;;
60722;SDS011;46574;52.818;6.516;2024-01-10T02:10:31;20.10;;;14.25;;
60722;SDS011;46574;52.818;6.516;2024-01-10T02:12:57;20.17;;;14.38;;
60722;SDS011;46574;52.818;6.516;2024-01-10T02:15:23;18.10;;;13.77;;
60722;SDS011;46574;52.818;6.516;2024-01-10T02:17:49;19.90;;;14.23;;
60722;SDS011;46574;52.818;6.516;2024-01-10T02:20:15;22.35;;;15.00;;
60722;SDS011;46574;52.818;6.516;2024-01-10T02:22:46;21.50;;;14.85;;
60722;SDS011;46574;52.818;6.516;2024-01-10T02:25:12;20.73;;;14.43;;
60722;SDS011;46574;52.818;6.516;2024-01-10T02:27:39;21.38;;;15.20;;
60722;SDS011;46574;52.818;6.516;2024-01-10T02:30:06;22.25;;;15.98;;
60722;SDS011;46574;52.818;6.516;2024-01-10T02:32:33;21.20;;;14.85;;
60722;SDS011;46574;52.818;6.516;2024-01-10T02:34:59;19.42;;;15.63;;
60722;SDS011;46574;52.818;6.516;2024-01-10T02:37:25;20.92;;;15.38;;
60722;SDS011;46574;52.818;6.516;2024-01-10T02:39:50;20.23;;;14.43;;
60722;SDS011;46574;52.818;6.516;2024-01-10T02:42:16;21.83;;;15.65;;
60722;SDS011;46574;52.818;6.516;2024-01-10T02:44:42;19.55;;;14.05;;
60722;SDS011;46574;52.818;6.516;2024-01-10T02:47:08;22.33;;;14.13;;
60722;SDS011;46574;52.818;6.516;2024-01-10T02:49:35;18.52;;;13.88;;
60722;SDS011;46574;52.818;6.516;2024-01-10T02:52:01;22.55;;;14.73;;
60722;SDS011;46574;52.818;6.516;2024-01-10T02:54:26;19.33;;;13.80;;
60722;SDS011;46574;52.818;6.516;2024-01-10T02:56:52;21.25;;;15.00;;
60722;SDS011;46574;52.818;6.516;2024-01-10T02:59:17;21.13;;;14.60;;
60722;SDS011;46574;52.818;6.516;2024-01-10T03:01:43;21.60;;;14.75;;
60722;SDS011;46574;52.818;6.516;2024-01-10T03:04:09;22.00;;;14.02;;
60722;SDS011;46574;52.818;6.516;2024-01-10T03:06:35;19.08;;;14.07;;
60722;SDS011;46574;52.818;6.516;2024-01-10T03:09:00;18.80;;;13.93;;
60722;SDS011;46574;52.818;6.516;2024-01-10T03:11:26;19.60;;;13.65;;
60722;SDS011;46574;52.818;6.516;2024-01-10T03:13:54;19.13;;;13.63;;
60722;SDS011;46574;52.818;6.516;2024-01-10T03:16:27;20.90;;;14.50;;
60722;SDS011;46574;52.818;6.516;2024-01-10T03:18:53;18.15;;;13.50;;
60722;SDS011;46574;52.818;6.516;2024-01-10T03:21:18;22.40;;;13.52;;
60722;SDS011;46574;52.818;6.516;2024-01-10T03:23:59;21.70;;;13.65;;
60722;SDS011;46574;52.818;6.516;2024-01-10T03:26:26;17.35;;;12.60;;
60722;SDS011;46574;52.818;6.516;2024-01-10T03:28:52;19.40;;;13.68;;
60722;SDS011;46574;52.818;6.516;2024-01-10T03:31:18;19.08;;;13.85;;
60722;SDS011;46574;52.818;6.516;2024-01-10T03:33:44;21.67;;;14.18;;
60722;SDS011;46574;52.818;6.516;2024-01-10T03:36:14;20.95;;;13.45;;
60722;SDS011;46574;52.818;6.516;2024-01-10T03:38:42;19.73;;;13.88;;
60722;SDS011;46574;52.818;6.516;2024-01-10T03:41:18;21.17;;;14.35;;
60722;SDS011;46574;52.818;6.516;2024-01-10T03:43:44;21.65;;;14.82;;
60722;SDS011;46574;52.818;6.516;2024-01-10T03:46:10;22.85;;;14.90;;
60722;SDS011;46574;52.818;6.516;2024-01-10T03:48:36;19.90;;;14.63;;
60722;SDS011;46574;52.818;6.516;2024-01-10T03:51:03;21.30;;;14.98;;
60722;SDS011;46574;52.818;6.516;2024-01-10T03:53:30;20.10;;;14.77;;
60722;SDS011;46574;52.818;6.516;2024-01-10T03:55:55;21.23;;;14.95;;
60722;SDS011;46574;52.818;6.516;2024-01-10T03:58:21;22.38;;;14.38;;
60722;SDS011;46574;52.818;6.516;2024-01-10T04:00:48;21.27;;;14.90;;
60722;SDS011;46574;52.818;6.516;2024-01-10T04:03:14;22.15;;;15.75;;
60722;SDS011;46574;52.818;6.516;2024-01-10T04:05:40;18.30;;;13.63;;
60722;SDS011;46574;52.818;6.516;2024-01-10T04:08:06;21.92;;;14.65;;
60722;SDS011;46574;52.818;6.516;2024-01-10T04:10:32;22.52;;;15.55;;
60722;SDS011;46574;52.818;6.516;2024-01-10T04:12:57;22.75;;;14.88;;
60722;SDS011;46574;52.818;6.516;2024-01-10T04:15:23;20.85;;;15.02;;
60722;SDS011;46574;52.818;6.516;2024-01-10T04:17:49;20.33;;;13.98;;
60722;SDS011;46574;52.818;6.516;2024-01-10T04:20:15;21.92;;;14.93;;
60722;SDS011;46574;52.818;6.516;2024-01-10T04:22:40;23.88;;;15.82;;
60722;SDS011;46574;52.818;6.516;2024-01-10T04:25:06;24.52;;;15.25;;
60722;SDS011;46574;52.818;6.516;2024-01-10T04:27:33;23.15;;;15.38;;
60722;SDS011;46574;52.818;6.516;2024-01-10T04:29:58;22.83;;;15.23;;
60722;SDS011;46574;52.818;6.516;2024-01-10T04:32:27;23.60;;;15.50;;
60722;SDS011;46574;52.818;6.516;2024-01-10T04:34:52;21.88;;;15.25;;
60722;SDS011;46574;52.818;6.516;2024-01-10T04:37:18;23.00;;;15.73;;
60722;SDS011;46574;52.818;6.516;2024-01-10T04:39:44;22.58;;;15.20;;
60722;SDS011;46574;52.818;6.516;2024-01-10T04:42:13;21.52;;;16.23;;
60722;SDS011;46574;52.818;6.516;2024-01-10T04:47:05;21.88;;;14.80;;
60722;SDS011;46574;52.818;6.516;2024-01-10T04:49:32;21.88;;;15.32;;
60722;SDS011;46574;52.818;6.516;2024-01-10T04:51:58;23.83;;;15.80;;
60722;SDS011;46574;52.818;6.516;2024-01-10T04:54:23;24.05;;;17.33;;
60722;SDS011;46574;52.818;6.516;2024-01-10T04:56:49;22.83;;;15.48;;
60722;SDS011;46574;52.818;6.516;2024-01-10T04:59:15;23.08;;;15.90;;
60722;SDS011;46574;52.818;6.516;2024-01-10T05:01:40;24.17;;;16.38;;
60722;SDS011;46574;52.818;6.516;2024-01-10T05:04:06;25.38;;;16.42;;
60722;SDS011;46574;52.818;6.516;2024-01-10T05:06:32;26.30;;;16.58;;
60722;SDS011;46574;52.818;6.516;2024-01-10T05:08:57;23.52;;;16.85;;
60722;SDS011;46574;52.818;6.516;2024-01-10T05:11:24;25.13;;;16.95;;
60722;SDS011;46574;52.818;6.516;2024-01-10T05:13:53;23.95;;;16.65;;
60722;SDS011;46574;52.818;6.516;2024-01-10T05:16:18;26.23;;;17.80;;
60722;SDS011;46574;52.818;6.516;2024-01-10T05:18:44;28.02;;;17.65;;
60722;SDS011;46574;52.818;6.516;2024-01-10T05:21:10;24.88;;;17.50;;
60722;SDS011;46574;52.818;6.516;2024-01-10T05:23:36;24.58;;;17.25;;
60722;SDS011;46574;52.818;6.516;2024-01-10T05:26:04;24.75;;;17.85;;
60722;SDS011;46574;52.818;6.516;2024-01-10T05:28:30;26.10;;;18.00;;
60722;SDS011;46574;52.818;6.516;2024-01-10T05:30:55;24.52;;;17.33;;
60722;SDS011;46574;52.818;6.516;2024-01-10T05:33:22;29.42;;;19.25;;
60722;SDS011;46574;52.818;6.516;2024-01-10T05:35:47;30.63;;;20.27;;
60722;SDS011;46574;52.818;6.516;2024-01-10T05:38:13;26.45;;;19.30;;
60722;SDS011;46574;52.818;6.516;2024-01-10T05:40:38;28.33;;;18.33;;
60722;SDS011;46574;52.818;6.516;2024-01-10T05:43:04;26.58;;;19.30;;
60722;SDS011;46574;52.818;6.516;2024-01-10T05:45:30;31.17;;;20.05;;
60722;SDS011;46574;52.818;6.516;2024-01-10T05:47:56;28.30;;;19.13;;
60722;SDS011;46574;52.818;6.516;2024-01-10T05:50:23;30.85;;;19.33;;
60722;SDS011;46574;52.818;6.516;2024-01-10T05:52:48;29.20;;;20.30;;
60722;SDS011;46574;52.818;6.516;2024-01-10T05:55:14;30.45;;;20.85;;
60722;SDS011;46574;52.818;6.516;2024-01-10T05:57:40;30.88;;;21.33;;
60722;SDS011;46574;52.818;6.516;2024-01-10T06:00:05;29.00;;;19.90;;
60722;SDS011;46574;52.818;6.516;2024-01-10T06:02:41;31.52;;;20.30;;
60722;SDS011;46574;52.818;6.516;2024-01-10T06:05:08;31.23;;;20.42;;
60722;SDS011;46574;52.818;6.516;2024-01-10T06:07:35;30.30;;;19.63;;
60722;SDS011;46574;52.818;6.516;2024-01-10T06:10:01;29.65;;;20.77;;
60722;SDS011;46574;52.818;6.516;2024-01-10T06:12:27;28.65;;;20.42;;
60722;SDS011;46574;52.818;6.516;2024-01-10T06:14:53;30.52;;;20.88;;
60722;SDS011;46574;52.818;6.516;2024-01-10T06:17:19;31.08;;;20.10;;
60722;SDS011;46574;52.818;6.516;2024-01-10T06:19:45;29.05;;;19.75;;
60722;SDS011;46574;52.818;6.516;2024-01-10T06:22:10;28.85;;;20.85;;
60722;SDS011;46574;52.818;6.516;2024-01-10T06:24:36;30.75;;;21.13;;
60722;SDS011;46574;52.818;6.516;2024-01-10T06:27:03;29.73;;;19.92;;
60722;SDS011;46574;52.818;6.516;2024-01-10T06:29:29;29.42;;;20.80;;
60722;SDS011;46574;52.818;6.516;2024-01-10T06:31:55;28.55;;;20.02;;
60722;SDS011;46574;52.818;6.516;2024-01-10T06:34:22;29.08;;;20.48;;
60722;SDS011;46574;52.818;6.516;2024-01-10T06:36:48;29.50;;;20.42;;
60722;SDS011;46574;52.818;6.516;2024-01-10T06:39:13;32.90;;;21.52;;
60722;SDS011;46574;52.818;6.516;2024-01-10T06:41:40;30.45;;;21.00;;
60722;SDS011;46574;52.818;6.516;2024-01-10T06:44:07;29.02;;;19.65;;
60722;SDS011;46574;52.818;6.516;2024-01-10T06:46:33;27.10;;;19.58;;
60722;SDS011;46574;52.818;6.516;2024-01-10T06:48:59;27.98;;;20.20;;
60722;SDS011;46574;52.818;6.516;2024-01-10T06:51:25;27.58;;;19.75;;
60722;SDS011;46574;52.818;6.516;2024-01-10T06:53:52;29.08;;;20.13;;
60722;SDS011;46574;52.818;6.516;2024-01-10T06:56:18;27.00;;;20.08;;
60722;SDS011;46574;52.818;6.516;2024-01-10T06:58:44;29.00;;;19.42;;
60722;SDS011;46574;52.818;6.516;2024-01-10T07:01:13;29.88;;;19.20;;
60722;SDS011;46574;52.818;6.516;2024-01-10T07:03:40;27.95;;;18.70;;
60722;SDS011;46574;52.818;6.516;2024-01-10T07:06:08;30.02;;;19.90;;
60722;SDS011;46574;52.818;6.516;2024-01-10T07:08:34;28.98;;;19.38;;
60722;SDS011;46574;52.818;6.516;2024-01-10T07:11:00;26.17;;;18.98;;
60722;SDS011;46574;52.818;6.516;2024-01-10T07:13:25;29.83;;;19.20;;
60722;SDS011;46574;52.818;6.516;2024-01-10T07:15:51;29.63;;;21.25;;
60722;SDS011;46574;52.818;6.516;2024-01-10T07:18:17;27.00;;;20.08;;
60722;SDS011;46574;52.818;6.516;2024-01-10T07:20:43;31.40;;;20.70;;
60722;SDS011;46574;52.818;6.516;2024-01-10T07:23:09;31.60;;;20.10;;
60722;SDS011;46574;52.818;6.516;2024-01-10T07:25:35;27.73;;;20.02;;
60722;SDS011;46574;52.818;6.516;2024-01-10T07:28:02;26.40;;;18.45;;
60722;SDS011;46574;52.818;6.516;2024-01-10T07:30:28;29.48;;;20.00;;
60722;SDS011;46574;52.818;6.516;2024-01-10T07:32:58;28.50;;;20.17;;
60722;SDS011;46574;52.818;6.516;2024-01-10T07:35:23;28.48;;;19.92;;
60722;SDS011;46574;52.818;6.516;2024-01-10T07:37:49;28.08;;;20.08;;
60722;SDS011;46574;52.818;6.516;2024-01-10T07:40:15;28.63;;;19.48;;
60722;SDS011;46574;52.818;6.516;2024-01-10T07:42:42;28.98;;;19.00;;
60722;SDS011;46574;52.818;6.516;2024-01-10T07:45:08;25.50;;;17.25;;
60722;SDS011;46574;52.818;6.516;2024-01-10T07:47:34;27.23;;;17.95;;
60722;SDS011;46574;52.818;6.516;2024-01-10T07:50:04;28.88;;;19.35;;
60722;SDS011;46574;52.818;6.516;2024-01-10T07:52:34;31.60;;;19.80;;
60722;SDS011;46574;52.818;6.516;2024-01-10T07:55:00;25.85;;;19.02;;
60722;SDS011;46574;52.818;6.516;2024-01-10T07:57:26;27.17;;;18.83;;
60722;SDS011;46574;52.818;6.516;2024-01-10T07:59:52;28.83;;;19.15;;
60722;SDS011;46574;52.818;6.516;2024-01-10T08:02:18;27.08;;;19.00;;
60722;SDS011;46574;52.818;6.516;2024-01-10T08:04:44;25.85;;;18.25;;
60722;SDS011;46574;52.818;6.516;2024-01-10T08:07:10;26.42;;;18.55;;
60722;SDS011;46574;52.818;6.516;2024-01-10T08:09:36;25.17;;;17.83;;
60722;SDS011;46574;52.818;6.516;2024-01-10T08:12:02;22.50;;;17.23;;
60722;SDS011;46574;52.818;6.516;2024-01-10T08:14:28;26.13;;;18.20;;
60722;SDS011;46574;52.818;6.516;2024-01-10T08:16:54;23.77;;;18.00;;
60722;SDS011;46574;52.818;6.516;2024-01-10T08:19:23;22.52;;;17.20;;
60722;SDS011;46574;52.818;6.516;2024-01-10T08:21:51;22.08;;;16.05;;
60722;SDS011;46574;52.818;6.516;2024-01-10T08:24:18;24.55;;;17.27;;
60722;SDS011;46574;52.818;6.516;2024-01-10T08:26:44;21.98;;;15.35;;
60722;SDS011;46574;52.818;6.516;2024-01-10T08:29:09;21.70;;;16.27;;
60722;SDS011;46574;52.818;6.516;2024-01-10T08:31:35;25.42;;;18.10;;
60722;SDS011;46574;52.818;6.516;2024-01-10T08:34:01;24.75;;;17.25;;
60722;SDS011;46574;52.818;6.516;2024-01-10T08:36:27;21.20;;;16.55;;
60722;SDS011;46574;52.818;6.516;2024-01-10T08:38:53;23.38;;;16.90;;
60722;SDS011;46574;52.818;6.516;2024-01-10T08:41:19;23.38;;;17.15;;
60722;SDS011;46574;52.818;6.516;2024-01-10T08:43:46;22.23;;;16.58;;
60722;SDS011;46574;52.818;6.516;2024-01-10T08:46:12;23.75;;;17.08;;
60722;SDS011;46574;52.818;6.516;2024-01-10T08:48:37;25.25;;;16.55;;
60722;SDS011;46574;52.818;6.516;2024-01-10T08:51:03;23.02;;;17.52;;
60722;SDS011;46574;52.818;6.516;2024-01-10T08:53:29;25.30;;;17.58;;
60722;SDS011;46574;52.818;6.516;2024-01-10T08:55:55;22.48;;;17.17;;
60722;SDS011;46574;52.818;6.516;2024-01-10T08:58:21;23.20;;;16.92;;
60722;SDS011;46574;52.818;6.516;2024-01-10T09:00:46;23.48;;;17.33;;
60722;SDS011;46574;52.818;6.516;2024-01-10T09:03:12;22.45;;;17.88;;
60722;SDS011;46574;52.818;6.516;2024-01-10T09:05:38;21.58;;;16.42;;
60722;SDS011;46574;52.818;6.516;2024-01-10T09:08:04;24.60;;;17.42;;
60722;SDS011;46574;52.818;6.516;2024-01-10T09:10:30;25.20;;;17.88;;
60722;SDS011;46574;52.818;6.516;2024-01-10T09:12:57;25.33;;;17.20;;
60722;SDS011;46574;52.818;6.516;2024-01-10T09:15:23;21.98;;;16.65;;
60722;SDS011;46574;52.818;6.516;2024-01-10T09:17:50;24.52;;;17.05;;
60722;SDS011;46574;52.818;6.516;2024-01-10T09:20:17;24.27;;;17.67;;
60722;SDS011;46574;52.818;6.516;2024-01-10T09:22:43;22.98;;;16.15;;
60722;SDS011;46574;52.818;6.516;2024-01-10T09:25:09;23.15;;;17.08;;
60722;SDS011;46574;52.818;6.516;2024-01-10T09:27:38;23.70;;;17.33;;
60722;SDS011;46574;52.818;6.516;2024-01-10T09:30:06;22.98;;;17.42;;
60722;SDS011;46574;52.818;6.516;2024-01-10T09:32:35;22.55;;;16.30;;
60722;SDS011;46574;52.818;6.516;2024-01-10T09:35:01;24.38;;;16.52;;
60722;SDS011;46574;52.818;6.516;2024-01-10T09:37:27;21.90;;;15.48;;
60722;SDS011;46574;52.818;6.516;2024-01-10T09:39:53;21.00;;;15.57;;
60722;SDS011;46574;52.818;6.516;2024-01-10T09:42:19;24.27;;;15.48;;
60722;SDS011;46574;52.818;6.516;2024-01-10T09:44:50;22.77;;;15.55;;
60722;SDS011;46574;52.818;6.516;2024-01-10T09:47:16;21.77;;;15.02;;
60722;SDS011;46574;52.818;6.516;2024-01-10T09:49:44;22.75;;;16.55;;
60722;SDS011;46574;52.818;6.516;2024-01-10T09:52:13;20.52;;;15.13;;
60722;SDS011;46574;52.818;6.516;2024-01-10T09:55:04;22.98;;;16.15;;
60722;SDS011;46574;52.818;6.516;2024-01-10T09:57:30;24.80;;;16.30;;
60722;SDS011;46574;52.818;6.516;2024-01-10T09:59:56;24.13;;;15.73;;
60722;SDS011;46574;52.818;6.516;2024-01-10T10:02:21;24.25;;;16.45;;
60722;SDS011;46574;52.818;6.516;2024-01-10T10:05:11;22.52;;;15.85;;
60722;SDS011;46574;52.818;6.516;2024-01-10T10:07:46;22.13;;;15.52;;
60722;SDS011;46574;52.818;6.516;2024-01-10T10:10:12;20.77;;;14.55;;
60722;SDS011;46574;52.818;6.516;2024-01-10T10:12:49;25.45;;;16.30;;
60722;SDS011;46574;52.818;6.516;2024-01-10T10:15:18;22.02;;;15.65;;
60722;SDS011;46574;52.818;6.516;2024-01-10T10:20:34;21.00;;;14.70;;
60722;SDS011;46574;52.818;6.516;2024-01-10T10:23:05;20.38;;;14.85;;
60722;SDS011;46574;52.818;6.516;2024-01-10T10:25:32;21.50;;;14.98;;
60722;SDS011;46574;52.818;6.516;2024-01-10T10:27:59;22.25;;;15.07;;
60722;SDS011;46574;52.818;6.516;2024-01-10T10:30:27;21.63;;;14.88;;
60722;SDS011;46574;52.818;6.516;2024-01-10T10:32:53;21.15;;;14.85;;
60722;SDS011;46574;52.818;6.516;2024-01-10T10:35:20;21.48;;;14.02;;
60722;SDS011;46574;52.818;6.516;2024-01-10T10:37:50;20.85;;;14.35;;
60722;SDS011;46574;52.818;6.516;2024-01-10T10:40:17;21.83;;;14.57;;
60722;SDS011;46574;52.818;6.516;2024-01-10T10:42:48;22.67;;;14.32;;
60722;SDS011;46574;52.818;6.516;2024-01-10T10:45:17;19.05;;;13.82;;
60722;SDS011;46574;52.818;6.516;2024-01-10T10:47:44;22.35;;;14.20;;
60722;SDS011;46574;52.818;6.516;2024-01-10T10:50:16;22.05;;;14.27;;
60722;SDS011;46574;52.818;6.516;2024-01-10T10:52:48;19.65;;;12.63;;
60722;SDS011;46574;52.818;6.516;2024-01-10T10:55:15;21.17;;;13.32;;
60722;SDS011;46574;52.818;6.516;2024-01-10T10:57:46;19.88;;;13.20;;
60722;SDS011;46574;52.818;6.516;2024-01-10T11:00:13;22.60;;;14.02;;
60722;SDS011;46574;52.818;6.516;2024-01-10T11:02:44;23.23;;;14.68;;
60722;SDS011;46574;52.818;6.516;2024-01-10T11:05:10;20.63;;;12.70;;
60722;SDS011;46574;52.818;6.516;2024-01-10T11:07:39;20.83;;;14.02;;
60722;SDS011;46574;52.818;6.516;2024-01-10T11:10:09;20.63;;;13.70;;
60722;SDS011;46574;52.818;6.516;2024-01-10T11:16:04;18.17;;;12.25;;
60722;SDS011;46574;52.818;6.516;2024-01-10T11:18:59;18.73;;;12.38;;
60722;SDS011;46574;52.818;6.516;2024-01-10T11:22:00;16.02;;;11.77;;
60722;SDS011;46574;52.818;6.516;2024-01-10T11:24:42;17.88;;;12.05;;
60722;SDS011;46574;52.818;6.516;2024-01-10T11:27:12;18.48;;;11.60;;
60722;SDS011;46574;52.818;6.516;2024-01-10T11:29:39;17.77;;;11.73;;
60722;SDS011;46574;52.818;6.516;2024-01-10T11:32:15;17.35;;;11.63;;
60722;SDS011;46574;52.818;6.516;2024-01-10T11:34:54;19.80;;;12.05;;
60722;SDS011;46574;52.818;6.516;2024-01-10T11:37:21;15.85;;;11.10;;
60722;SDS011;46574;52.818;6.516;2024-01-10T11:39:47;15.30;;;10.43;;
60722;SDS011;46574;52.818;6.516;2024-01-10T11:42:40;18.02;;;10.90;;
60722;SDS011;46574;52.818;6.516;2024-01-10T11:47:56;17.55;;;11.70;;
60722;SDS011;46574;52.818;6.516;2024-01-10T11:50:22;15.85;;;10.35;;
60722;SDS011;46574;52.818;6.516;2024-01-10T11:52:52;15.85;;;10.13;;
60722;SDS011;46574;52.818;6.516;2024-01-10T11:58:17;15.52;;;10.57;;
60722;SDS011;46574;52.818;6.516;2024-01-10T12:00:42;15.70;;;10.40;;
60722;SDS011;46574;52.818;6.516;2024-01-10T12:03:09;14.82;;;9.85;;
60722;SDS011;46574;52.818;6.516;2024-01-10T12:05:37;15.35;;;9.88;;
60722;SDS011;46574;52.818;6.516;2024-01-10T12:08:06;16.42;;;10.50;;
60722;SDS011;46574;52.818;6.516;2024-01-10T12:10:33;14.70;;;10.18;;
60722;SDS011;46574;52.818;6.516;2024-01-10T12:13:02;14.33;;;9.77;;
60722;SDS011;46574;52.818;6.516;2024-01-10T12:15:31;16.52;;;10.38;;
60722;SDS011;46574;52.818;6.516;2024-01-10T12:17:56;15.13;;;9.75;;
60722;SDS011;46574;52.818;6.516;2024-01-10T12:20:22;15.13;;;9.15;;
60722;SDS011;46574;52.818;6.516;2024-01-10T12:22:48;14.10;;;9.43;;
60722;SDS011;46574;52.818;6.516;2024-01-10T12:25:13;13.82;;;9.38;;
60722;SDS011;46574;52.818;6.516;2024-01-10T12:27:39;14.30;;;10.02;;
60722;SDS011;46574;52.818;6.516;2024-01-10T12:30:05;13.63;;;9.68;;
60722;SDS011;46574;52.818;6.516;2024-01-10T12:32:32;15.15;;;9.57;;
60722;SDS011;46574;52.818;6.516;2024-01-10T12:35:01;17.30;;;10.40;;
60722;SDS011;46574;52.818;6.516;2024-01-10T12:37:28;15.85;;;9.90;;
60722;SDS011;46574;52.818;6.516;2024-01-10T12:39:54;15.77;;;10.27;;
60722;SDS011;46574;52.818;6.516;2024-01-10T12:42:21;15.65;;;10.05;;
60722;SDS011;46574;52.818;6.516;2024-01-10T12:44:47;14.65;;;9.10;;
60722;SDS011;46574;52.818;6.516;2024-01-10T12:47:22;14.45;;;9.00;;
60722;SDS011;46574;52.818;6.516;2024-01-10T12:49:50;15.00;;;9.38;;
60722;SDS011;46574;52.818;6.516;2024-01-10T12:52:15;16.25;;;9.52;;
60722;SDS011;46574;52.818;6.516;2024-01-10T12:54:42;13.55;;;9.43;;
60722;SDS011;46574;52.818;6.516;2024-01-10T12:57:08;18.75;;;9.57;;
60722;SDS011;46574;52.818;6.516;2024-01-10T12:59:35;14.45;;;9.73;;
60722;SDS011;46574;52.818;6.516;2024-01-10T13:02:00;13.00;;;8.95;;
60722;SDS011;46574;52.818;6.516;2024-01-10T13:04:26;12.80;;;9.23;;
60722;SDS011;46574;52.818;6.516;2024-01-10T13:06:52;14.32;;;9.23;;
60722;SDS011;46574;52.818;6.516;2024-01-10T13:09:17;13.23;;;9.05;;
60722;SDS011;46574;52.818;6.516;2024-01-10T13:11:43;13.77;;;9.18;;
60722;SDS011;46574;52.818;6.516;2024-01-10T13:14:10;15.23;;;9.07;;
60722;SDS011;46574;52.818;6.516;2024-01-10T13:16:37;14.32;;;9.48;;
60722;SDS011;46574;52.818;6.516;2024-01-10T13:19:03;12.80;;;8.73;;
60722;SDS011;46574;52.818;6.516;2024-01-10T13:21:28;12.68;;;8.23;;
60722;SDS011;46574;52.818;6.516;2024-01-10T13:23:54;12.25;;;8.20;;
60722;SDS011;46574;52.818;6.516;2024-01-10T13:26:20;13.13;;;8.60;;
60722;SDS011;46574;52.818;6.516;2024-01-10T13:28:45;11.35;;;8.32;;
60722;SDS011;46574;52.818;6.516;2024-01-10T13:31:11;12.10;;;8.32;;
60722;SDS011;46574;52.818;6.516;2024-01-10T13:33:37;13.25;;;8.48;;
60722;SDS011;46574;52.818;6.516;2024-01-10T13:36:06;13.75;;;8.23;;
60722;SDS011;46574;52.818;6.516;2024-01-10T13:40:57;11.93;;;7.57;;
60722;SDS011;46574;52.818;6.516;2024-01-10T13:43:23;13.18;;;7.80;;
60722;SDS011;46574;52.818;6.516;2024-01-10T13:45:49;14.32;;;8.35;;
60722;SDS011;46574;52.818;6.516;2024-01-10T13:48:14;11.40;;;7.72;;
60722;SDS011;46574;52.818;6.516;2024-01-10T13:50:41;10.38;;;7.72;;
60722;SDS011;46574;52.818;6.516;2024-01-10T13:53:06;12.50;;;8.10;;
60722;SDS011;46574;52.818;6.516;2024-01-10T13:55:32;12.40;;;8.13;;
60722;SDS011;46574;52.818;6.516;2024-01-10T13:58:00;17.30;;;8.32;;
60722;SDS011;46574;52.818;6.516;2024-01-10T14:00:25;12.90;;;7.97;;
60722;SDS011;46574;52.818;6.516;2024-01-10T14:02:52;11.38;;;8.38;;
60722;SDS011;46574;52.818;6.516;2024-01-10T14:05:23;11.05;;;7.32;;
60722;SDS011;46574;52.818;6.516;2024-01-10T14:07:49;11.45;;;8.05;;
60722;SDS011;46574;52.818;6.516;2024-01-10T14:10:15;14.25;;;8.38;;
60722;SDS011;46574;52.818;6.516;2024-01-10T14:12:41;11.77;;;7.70;;
60722;SDS011;46574;52.818;6.516;2024-01-10T14:15:06;12.18;;;8.32;;
60722;SDS011;46574;52.818;6.516;2024-01-10T14:17:34;11.43;;;7.97;;
60722;SDS011;46574;52.818;6.516;2024-01-10T14:20:00;12.23;;;7.80;;
60722;SDS011;46574;52.818;6.516;2024-01-10T14:22:25;13.50;;;8.23;;
60722;SDS011;46574;52.818;6.516;2024-01-10T14:24:51;9.98;;;7.70;;
60722;SDS011;46574;52.818;6.516;2024-01-10T14:27:19;12.60;;;8.25;;
60722;SDS011;46574;52.818;6.516;2024-01-10T14:29:45;11.75;;;8.10;;
60722;SDS011;46574;52.818;6.516;2024-01-10T14:32:11;10.98;;;7.97;;
60722;SDS011;46574;52.818;6.516;2024-01-10T14:34:40;11.80;;;8.18;;
60722;SDS011;46574;52.818;6.516;2024-01-10T14:37:06;14.05;;;8.48;;
60722;SDS011;46574;52.818;6.516;2024-01-10T14:39:33;12.45;;;7.80;;
60722;SDS011;46574;52.818;6.516;2024-01-10T14:42:04;13.02;;;8.20;;